Rome Heights, Illinois
Current Conditions -  °F | °C
As of 9:15 PM on Thursday 27 Nov 2014 (Local Time) from KC75 Reporting Station
Clear Clear  
Wind Chill: 12°   Ceiling: Unl
Heat Index: 12°   Visibility: 10mi
Dew Point:   Wind: 0mph
Humidity: 79%   Direction: NA
Pressure: 30.44"   Gusts: NA
Location:  40.915°N, 89.5303°W
Report Text: KC75 280315Z AUTO 00000KT 10SM CLR M11/M14 A3044 RMK AO2 T11131143
Loading
Personal Weather Stations






























Interactive Weather Map New forecast layout! Learn more

10-Day Weather Forecast

Advertisements
Track Severe Weather on mobile